Huvudsida
METAR-TAF:

METAR-TAF

Flygplatser :

Albacete Airport

Albacete, Spanien

latitud: 38-57N, longitud: 001-51W, höjd: 702 m

Aktuellt väderrapport

Denna rapport gjordes för 33 minuter sedan, klockan 06:00 UTC
Stilla vind
Temperatur 20°C
Fuktighet 73%
Tryck 1023 hPa
Sikt 10 km eller mer
Inga moln under 1 500 m eller inga cumulonimbus

METAR: LEAB 230600Z 00000KT CAVOK 20/15 Q1023 NOSIG

Tid: 08:33 (06:33 UTC)

Väderprognos

Denna rapport gjordes för 1 timme och 33 minuter sedan, klockan 05:00 UTC
Prognos gäller från 23 kl. 06 UTC till 24 kl. 06 UTC
Vind 7 kt från syd/sydost
Sikt 10 km eller mer
Inga moln under 1 500 m eller inga cumulonimbus
Blir
från 23 kl. 17 UTC till 23 kl. 19 UTC
Vind 10 kt från syd

TAF: LEAB 230500Z 2306/2406 16007KT CAVOK TX36/2315Z TN21/2403Z BECMG 2317/2319 18010KT

Aktuella väderrapporter och prognoser från 4000 flygplatser (METAR- och TAF-rapporter).

De tillgängliga stationerna syns som gula och röda prickar på kartan.

För musen över prickarna för att se namnen på stationerna.

Klicka sedan för att få väderrapporter och prognoser.

För att ändra kartan: Klicka på de gröna knapparna med ett svart kors på för att zooma in; den gröna knappen med ett streck på för att zooma ut; eller på de gröna pilarna för angränsande kartor.


METAR-TAF: